Terminal Aerodrome Forecast
Issued by NWS Charleston, WV

Home | Current Version | Previous Version | Text Only | Print | Product List | Glossary On
Versions: 1 2 3 4 5 6 7 8 9 10 11 12 13 14 15 16 17 18 19 20 21 22 23
128
FTUS41 KRLX 041130
TAFPKB
TAF
KPKB 041130Z 0412/0512 00000KT P6SM BKN130
     FM041500 10005KT P6SM OVC060
     FM050100 11004KT 5SM -RA OVC030
     FM050500 20006KT P6SM OVC015
     FM050700 22006KT P6SM OVC008
     FM050900 22006KT P6SM OVC010=

USA.gov is the U.S. government's official web portal to all federal, state and local government web resources and services.